createdAt,value
2022-07-26T00:00:04.072Z,64.32
2022-07-26T00:02:31.310Z,64.56
2022-07-26T00:04:57.947Z,64.23
2022-07-26T00:07:24.482Z,64.62
2022-07-26T00:09:51.111Z,64.58
2022-07-26T00:12:18.728Z,64.86
2022-07-26T00:14:45.372Z,64.65
2022-07-26T00:17:12.146Z,64.29
2022-07-26T00:19:38.889Z,64.39
2022-07-26T00:22:05.557Z,64.88
2022-07-26T00:24:35.401Z,65.30
2022-07-26T00:27:02.171Z,65.39
2022-07-26T00:29:28.829Z,65.45
2022-07-26T00:31:55.618Z,65.43
2022-07-26T00:34:22.207Z,65.68
2022-07-26T00:36:48.811Z,65.69
2022-07-26T00:39:15.368Z,65.43
2022-07-26T00:41:42.114Z,65.56
2022-07-26T00:44:08.752Z,65.82
2022-07-26T00:46:35.369Z,65.83
2022-07-26T00:49:02.084Z,65.85
2022-07-26T00:51:29.266Z,65.51
2022-07-26T00:53:55.872Z,65.75
2022-07-26T00:56:22.543Z,65.49
2022-07-26T00:58:49.241Z,65.48
2022-07-26T01:01:15.882Z,65.52
2022-07-26T01:03:42.479Z,65.46
2022-07-26T01:06:09.123Z,65.11
2022-07-26T01:08:36.032Z,64.79
2022-07-26T01:11:02.757Z,64.61
2022-07-26T01:13:33.260Z,64.98
2022-07-26T01:16:01.878Z,65.34
2022-07-26T01:18:28.518Z,65.17
2022-07-26T01:20:57.825Z,65.12
2022-07-26T01:23:24.425Z,65.55
2022-07-26T01:25:51.059Z,65.65
2022-07-26T01:28:19.872Z,65.42
2022-07-26T01:30:48.150Z,65.34
2022-07-26T01:33:14.845Z,65.94
2022-07-26T01:35:41.462Z,65.47
2022-07-26T01:38:08.099Z,65.87
2022-07-26T01:40:34.811Z,65.45
2022-07-26T01:43:01.354Z,65.49
2022-07-26T01:45:28.086Z,65.45
2022-07-26T01:47:55.117Z,65.76
2022-07-26T01:50:21.812Z,65.59
2022-07-26T01:52:48.514Z,65.05
2022-07-26T01:55:15.139Z,65.36
2022-07-26T01:57:45.298Z,65.54
2022-07-26T02:00:13.211Z,65.48
2022-07-26T02:02:39.920Z,65.28
2022-07-26T02:05:06.975Z,64.77
2022-07-26T02:07:43.851Z,64.98
2022-07-26T02:10:13.322Z,65.38
2022-07-26T02:12:41.775Z,65.50
2022-07-26T02:15:09.836Z,65.56
2022-07-26T02:17:36.344Z,65.24
2022-07-26T02:20:04.239Z,65.40
2022-07-26T02:22:30.844Z,65.13
2022-07-26T02:25:00.547Z,65.15
2022-07-26T02:27:31.151Z,65.35
2022-07-26T02:29:57.756Z,65.04
2022-07-26T02:32:29.667Z,65.29
2022-07-26T02:34:56.447Z,65.43
2022-07-26T02:37:23.033Z,65.02
2022-07-26T02:39:49.608Z,65.19
2022-07-26T02:42:16.205Z,65.04
2022-07-26T02:44:42.839Z,65.15
2022-07-26T02:47:09.483Z,65.51
2022-07-26T02:49:39.444Z,65.05
2022-07-26T02:52:06.026Z,65.37
2022-07-26T02:54:32.551Z,65.30
2022-07-26T02:56:59.119Z,65.18
2022-07-26T02:59:25.698Z,64.99
2022-07-26T03:01:52.251Z,64.77
2022-07-26T03:04:18.999Z,64.87
2022-07-26T03:06:45.682Z,64.66
2022-07-26T03:09:12.265Z,64.63
2022-07-26T03:11:39.018Z,64.74
2022-07-26T03:14:07.620Z,64.64
2022-07-26T03:16:34.553Z,64.66
2022-07-26T03:19:01.727Z,64.45
2022-07-26T03:21:28.360Z,64.71
2022-07-26T03:23:54.902Z,64.78
2022-07-26T03:26:21.564Z,64.58
2022-07-26T03:28:48.355Z,64.42
2022-07-26T03:31:15.100Z,64.25
2022-07-26T03:33:41.689Z,64.69
2022-07-26T03:36:08.680Z,64.55
2022-07-26T03:38:38.428Z,64.44
2022-07-26T03:41:05.148Z,64.37
2022-07-26T03:43:31.818Z,64.68
2022-07-26T03:46:03.280Z,64.52
2022-07-26T03:48:31.395Z,64.43
2022-07-26T03:50:57.981Z,64.22
2022-07-26T03:53:24.583Z,64.36
2022-07-26T03:55:51.684Z,64.18
2022-07-26T03:58:18.344Z,63.81
2022-07-26T04:00:45.737Z,64.30
2022-07-26T04:03:12.390Z,64.13
2022-07-26T04:05:38.960Z,64.42
2022-07-26T04:08:05.752Z,64.13
2022-07-26T04:10:32.631Z,64.33
2022-07-26T04:12:59.168Z,64.24
2022-07-26T04:15:25.749Z,64.24
2022-07-26T04:17:52.326Z,64.06
2022-07-26T04:20:18.897Z,64.25
2022-07-26T04:22:45.547Z,64.11
2022-07-26T04:25:12.207Z,64.20
2022-07-26T04:27:38.929Z,63.93
2022-07-26T04:30:12.382Z,63.95
2022-07-26T04:32:41.313Z,63.78
2022-07-26T04:35:08.316Z,63.54
2022-07-26T04:37:42.018Z,63.35
2022-07-26T04:40:10.072Z,63.74
2022-07-26T04:42:38.536Z,63.68
2022-07-26T04:45:08.351Z,63.57
2022-07-26T04:47:35.348Z,64.07
2022-07-26T04:50:03.935Z,63.59
2022-07-26T04:52:30.520Z,63.62
2022-07-26T04:54:57.104Z,63.50
2022-07-26T04:57:23.780Z,63.60
2022-07-26T05:00:03.381Z,63.38
2022-07-26T05:02:37.104Z,63.43
2022-07-26T05:05:05.335Z,64.17
2022-07-26T05:07:46.650Z,63.73
2022-07-26T05:10:14.626Z,64.14
2022-07-26T05:12:41.157Z,63.33
2022-07-26T05:15:13.554Z,63.74
2022-07-26T05:17:42.781Z,63.41
2022-07-26T05:20:12.417Z,63.51
2022-07-26T05:22:39.445Z,63.37
2022-07-26T05:25:06.812Z,63.55
2022-07-26T05:27:33.606Z,63.78
2022-07-26T05:30:00.378Z,63.84
2022-07-26T05:32:27.119Z,63.87
2022-07-26T05:34:53.881Z,63.57
2022-07-26T05:37:20.475Z,63.71
2022-07-26T05:39:47.003Z,63.79
2022-07-26T05:42:13.533Z,63.74
2022-07-26T05:44:42.471Z,63.71
2022-07-26T05:47:09.981Z,63.89
2022-07-26T05:49:40.079Z,63.50
2022-07-26T05:52:07.904Z,63.59
2022-07-26T05:54:34.946Z,63.78
2022-07-26T05:57:01.647Z,63.75
2022-07-26T05:59:28.450Z,63.42
2022-07-26T06:01:55.277Z,63.29
2022-07-26T06:04:23.189Z,63.11
2022-07-26T06:06:52.705Z,63.51
2022-07-26T06:09:19.269Z,63.34
2022-07-26T06:11:46.789Z,63.36
2022-07-26T06:14:13.840Z,63.21
2022-07-26T06:16:40.720Z,63.27
2022-07-26T06:19:07.414Z,63.19
2022-07-26T06:21:34.062Z,63.14
2022-07-26T06:24:00.590Z,62.87
2022-07-26T06:26:27.169Z,62.75
2022-07-26T06:28:53.706Z,62.85
2022-07-26T06:31:20.737Z,63.32
2022-07-26T06:33:47.420Z,63.60
2022-07-26T06:36:14.035Z,64.22
2022-07-26T06:38:40.613Z,65.33
2022-07-26T06:41:07.211Z,65.66
2022-07-26T06:43:33.874Z,65.87
2022-07-26T06:46:00.628Z,66.39
2022-07-26T06:48:27.391Z,67.48
2022-07-26T06:50:55.655Z,68.05
2022-07-26T06:53:22.253Z,68.55
2022-07-26T06:55:48.854Z,68.89
2022-07-26T06:58:15.402Z,69.35
2022-07-26T07:00:42.118Z,69.60
2022-07-26T07:03:08.858Z,70.12
2022-07-26T07:05:35.721Z,70.13
2022-07-26T07:08:02.268Z,70.60
2022-07-26T07:10:28.937Z,70.52
2022-07-26T07:12:56.192Z,70.70
2022-07-26T07:15:22.755Z,70.66
2022-07-26T07:17:49.345Z,70.59
2022-07-26T07:20:15.855Z,70.04
2022-07-26T07:22:42.387Z,70.03
2022-07-26T07:25:09.075Z,70.09
2022-07-26T07:27:35.785Z,69.69
2022-07-26T07:30:04.106Z,69.48
2022-07-26T07:32:31.018Z,69.59
2022-07-26T07:34:57.681Z,69.50
2022-07-26T07:37:24.299Z,69.73
2022-07-26T07:39:51.400Z,69.51
2022-07-26T07:42:19.530Z,69.43
2022-07-26T07:44:46.463Z,67.89
2022-07-26T07:47:13.076Z,69.71
2022-07-26T07:49:39.737Z,69.69
2022-07-26T07:52:06.418Z,69.61
2022-07-26T07:54:33.077Z,69.68
2022-07-26T07:56:59.644Z,69.77
2022-07-26T07:59:26.203Z,69.48
2022-07-26T08:01:52.796Z,68.80
2022-07-26T08:04:19.464Z,68.70
2022-07-26T08:06:51.419Z,67.88
2022-07-26T08:09:19.088Z,68.05
2022-07-26T08:11:46.271Z,68.08
2022-07-26T08:14:18.146Z,68.13
2022-07-26T08:16:44.802Z,67.90
2022-07-26T08:19:11.921Z,67.57
2022-07-26T08:21:38.752Z,67.83
2022-07-26T08:24:06.736Z,67.56
2022-07-26T08:26:33.406Z,67.48
2022-07-26T08:29:00.633Z,67.87
2022-07-26T08:31:30.541Z,68.23
2022-07-26T08:33:57.490Z,68.92
2022-07-26T08:36:24.085Z,69.29
2022-07-26T08:38:50.762Z,69.46
2022-07-26T08:41:18.353Z,69.70
2022-07-26T08:43:52.363Z,69.28
2022-07-26T08:46:28.156Z,69.67
2022-07-26T08:48:56.669Z,69.58
2022-07-26T08:51:25.093Z,69.90
2022-07-26T08:53:54.129Z,68.16
2022-07-26T08:56:20.856Z,68.95
2022-07-26T08:58:47.574Z,69.07
2022-07-26T09:01:14.630Z,68.99
2022-07-26T09:03:42.732Z,68.93
2022-07-26T09:06:13.270Z,67.88
2022-07-26T09:08:39.956Z,68.66
2022-07-26T09:11:24.852Z,67.14
2022-07-26T09:13:55.817Z,68.07
2022-07-26T09:16:22.559Z,68.34
2022-07-26T09:18:49.258Z,68.25
2022-07-26T09:21:32.182Z,67.56
2022-07-26T09:23:59.972Z,68.08
2022-07-26T09:26:27.191Z,68.40
2022-07-26T09:29:07.361Z,68.11
2022-07-26T09:31:35.833Z,69.13
2022-07-26T09:34:02.802Z,69.39
2022-07-26T09:36:29.562Z,69.13
2022-07-26T09:39:05.359Z,68.35
2022-07-26T09:41:37.095Z,68.42
2022-07-26T09:44:19.743Z,69.43
2022-07-26T09:46:54.497Z,69.93
2022-07-26T09:49:22.533Z,71.05
2022-07-26T09:51:51.884Z,71.64
2022-07-26T09:54:31.138Z,71.39
2022-07-26T09:56:58.582Z,71.54
2022-07-26T09:59:27.480Z,71.63
2022-07-26T10:01:56.831Z,71.64
2022-07-26T10:04:24.280Z,71.26
2022-07-26T10:06:51.336Z,70.77
2022-07-26T10:09:18.538Z,69.59
2022-07-26T10:11:54.524Z,67.49
2022-07-26T10:14:38.628Z,67.82
2022-07-26T10:17:40.085Z,66.66
2022-07-26T10:20:31.958Z,67.13
2022-07-26T10:22:58.869Z,68.45
2022-07-26T10:25:25.870Z,68.20
2022-07-26T10:27:57.930Z,67.93
2022-07-26T10:30:33.321Z,68.10
2022-07-26T10:33:03.387Z,68.00
2022-07-26T10:35:36.089Z,66.01
2022-07-26T10:38:22.254Z,67.18
2022-07-26T10:41:01.929Z,64.97
2022-07-26T10:43:44.755Z,67.11
2022-07-26T10:46:17.431Z,65.50
2022-07-26T10:48:56.387Z,65.62
2022-07-26T10:51:33.691Z,64.83
2022-07-26T10:54:05.945Z,64.61
2022-07-26T10:56:33.865Z,65.35
2022-07-26T10:59:01.624Z,64.94
2022-07-26T11:01:39.303Z,64.50
2022-07-26T11:04:06.958Z,64.02
2022-07-26T11:06:33.881Z,65.82
2022-07-26T11:09:10.581Z,62.09
2022-07-26T11:11:37.157Z,64.74
2022-07-26T11:14:15.982Z,61.16
2022-07-26T11:16:45.797Z,62.96
2022-07-26T11:19:20.776Z,59.12
2022-07-26T11:21:57.297Z,60.35
2022-07-26T11:24:25.088Z,61.82
2022-07-26T11:26:51.718Z,55.19
2022-07-26T11:29:40.749Z,56.52
2022-07-26T11:32:20.432Z,59.86
2022-07-26T11:34:58.403Z,56.24
2022-07-26T11:37:25.079Z,59.68
2022-07-26T11:39:51.647Z,59.90
2022-07-26T11:42:19.158Z,58.83
2022-07-26T11:44:47.113Z,59.58
2022-07-26T11:47:19.173Z,58.68
2022-07-26T11:50:00.633Z,58.95
2022-07-26T11:52:33.406Z,58.33
2022-07-26T11:55:00.217Z,57.53
2022-07-26T11:57:32.180Z,54.92
2022-07-26T12:00:00.602Z,56.35
2022-07-26T12:02:28.950Z,55.95
2022-07-26T12:05:19.022Z,55.14
2022-07-26T12:08:03.699Z,53.31
2022-07-26T12:10:30.734Z,54.51
2022-07-26T12:13:11.144Z,51.94
2022-07-26T12:16:04.198Z,49.23
2022-07-26T12:18:32.005Z,53.69
2022-07-26T12:21:05.537Z,51.42
2022-07-26T12:23:43.757Z,50.64
2022-07-26T12:26:20.389Z,50.57
2022-07-26T12:28:47.031Z,52.36
2022-07-26T12:31:27.939Z,49.83
2022-07-26T12:33:54.887Z,51.59
2022-07-26T12:36:27.529Z,51.79
2022-07-26T12:39:00.314Z,49.38
2022-07-26T12:41:37.910Z,49.19
2022-07-26T12:44:06.356Z,51.76
2022-07-26T12:52:11.455Z,51.21
2022-07-26T12:54:38.119Z,51.20
2022-07-26T12:57:04.670Z,51.34
2022-07-26T12:59:31.308Z,51.81
2022-07-26T13:01:58.031Z,51.86
2022-07-26T13:04:24.724Z,52.04
2022-07-26T13:06:51.310Z,51.82
2022-07-26T13:09:17.887Z,52.29
2022-07-26T13:11:44.582Z,52.33
2022-07-26T13:14:11.787Z,51.58
2022-07-26T13:16:40.862Z,51.34
2022-07-26T13:19:07.629Z,50.89
2022-07-26T13:21:34.372Z,50.65
2022-07-26T13:24:01.326Z,50.53
2022-07-26T13:26:28.353Z,51.28
2022-07-26T13:28:55.126Z,51.90
2022-07-26T13:31:21.761Z,51.92
2022-07-26T13:33:48.509Z,51.57
2022-07-26T13:36:15.038Z,51.20
2022-07-26T13:38:41.595Z,50.58
2022-07-26T13:41:09.503Z,49.28
2022-07-26T13:43:36.136Z,49.11
2022-07-26T13:46:02.896Z,48.99
2022-07-26T13:48:29.594Z,49.29
2022-07-26T13:50:56.687Z,48.85
2022-07-26T13:53:26.537Z,45.14
2022-07-26T13:55:53.185Z,49.05
2022-07-26T13:58:19.710Z,48.63
2022-07-26T14:00:46.400Z,48.71
2022-07-26T14:03:13.138Z,48.77
2022-07-26T14:05:39.781Z,49.22
2022-07-26T14:08:06.609Z,49.29
2022-07-26T14:10:34.281Z,49.38
2022-07-26T14:13:00.843Z,48.90
2022-07-26T14:15:27.371Z,48.70
2022-07-26T14:17:53.971Z,48.63
2022-07-26T14:20:21.548Z,48.78
2022-07-26T14:22:49.450Z,48.77
2022-07-26T14:25:16.009Z,48.89
2022-07-26T14:27:42.614Z,48.42
2022-07-26T14:30:09.667Z,48.96
2022-07-26T14:32:36.287Z,48.94
2022-07-26T14:35:03.707Z,48.72
2022-07-26T14:37:42.546Z,48.50
2022-07-26T14:40:12.245Z,48.64
2022-07-26T14:42:38.960Z,49.24
2022-07-26T14:45:06.471Z,48.88
2022-07-26T14:47:33.126Z,48.91
2022-07-26T14:50:05.879Z,48.74
2022-07-26T14:52:33.368Z,48.41
2022-07-26T14:54:59.910Z,48.73
2022-07-26T14:57:26.522Z,49.33
2022-07-26T14:59:53.115Z,49.14
2022-07-26T15:02:19.824Z,49.21
2022-07-26T15:04:46.718Z,49.33
2022-07-26T15:07:13.277Z,49.42
2022-07-26T15:09:39.993Z,49.59
2022-07-26T15:12:06.831Z,49.48
2022-07-26T15:14:36.519Z,49.34
2022-07-26T15:17:03.357Z,49.60
2022-07-26T15:19:29.938Z,48.68
2022-07-26T15:21:56.840Z,49.30
2022-07-26T15:24:24.357Z,49.05
2022-07-26T15:26:51.159Z,49.24
2022-07-26T15:29:17.887Z,49.34
2022-07-26T15:31:44.636Z,49.00
2022-07-26T15:34:11.745Z,48.94
2022-07-26T15:36:38.814Z,49.38
2022-07-26T15:39:16.492Z,48.97
2022-07-26T15:41:44.258Z,49.25
2022-07-26T15:44:12.366Z,49.40
2022-07-26T15:46:39.715Z,49.89
2022-07-26T15:49:07.565Z,50.69
2022-07-26T15:51:34.325Z,50.41
2022-07-26T15:54:02.414Z,50.87
2022-07-26T15:56:29.009Z,50.74
2022-07-26T15:58:56.049Z,51.28
2022-07-26T16:01:22.765Z,51.18
2022-07-26T16:03:49.717Z,51.22
2022-07-26T16:06:17.520Z,50.37
2022-07-26T16:09:05.824Z,50.27
2022-07-26T16:11:31.367Z,50.08
2022-07-26T16:14:01.598Z,50.14
2022-07-26T16:16:30.085Z,50.07
2022-07-26T16:18:56.863Z,49.95
2022-07-26T16:21:23.644Z,49.96
2022-07-26T16:23:50.321Z,50.11
2022-07-26T16:26:17.432Z,50.43
2022-07-26T16:28:44.211Z,50.04
2022-07-26T16:31:10.888Z,48.90
2022-07-26T16:33:37.482Z,49.24
2022-07-26T16:36:12.440Z,49.51
2022-07-26T16:38:38.946Z,49.40
2022-07-26T16:41:05.559Z,48.37
2022-07-26T16:43:32.192Z,45.60
2022-07-26T16:45:58.866Z,44.99
2022-07-26T16:48:25.418Z,44.46
2022-07-26T16:50:52.034Z,44.17
2022-07-26T16:53:18.660Z,43.21
2022-07-26T16:55:45.324Z,44.21
2022-07-26T16:58:11.903Z,44.24
2022-07-26T17:00:38.629Z,44.33
2022-07-26T17:03:05.284Z,45.42
2022-07-26T17:05:31.908Z,45.62
2022-07-26T17:07:58.480Z,46.21
2022-07-26T17:10:25.531Z,46.65
2022-07-26T17:12:52.271Z,46.70
2022-07-26T17:15:18.885Z,47.09
2022-07-26T17:17:48.648Z,47.57
2022-07-26T17:20:15.825Z,47.81
2022-07-26T17:22:42.530Z,48.23
2022-07-26T17:25:09.326Z,48.01
2022-07-26T17:27:36.047Z,48.15
2022-07-26T17:30:07.146Z,47.25
2022-07-26T17:32:34.503Z,48.19
2022-07-26T17:35:01.260Z,48.39
2022-07-26T17:37:27.936Z,48.22
2022-07-26T17:39:57.317Z,48.14
2022-07-26T17:42:24.273Z,48.41
2022-07-26T17:44:51.279Z,48.77
2022-07-26T17:47:28.944Z,49.08
2022-07-26T17:50:09.031Z,49.13
2022-07-26T17:52:41.165Z,49.16
2022-07-26T17:55:08.169Z,49.74
2022-07-26T17:57:34.711Z,50.06
2022-07-26T18:00:06.208Z,50.49
2022-07-26T18:02:33.285Z,50.62
2022-07-26T18:04:59.880Z,50.63
2022-07-26T18:07:26.565Z,50.63
2022-07-26T18:09:53.111Z,50.91
2022-07-26T18:12:19.895Z,51.04
2022-07-26T18:14:46.431Z,51.18
2022-07-26T18:17:13.037Z,51.12
2022-07-26T18:19:39.598Z,51.49
2022-07-26T18:22:06.498Z,51.87
2022-07-26T18:24:33.205Z,52.10
2022-07-26T18:26:59.734Z,51.92
2022-07-26T18:29:26.359Z,52.24
2022-07-26T18:31:52.934Z,52.30
2022-07-26T18:34:19.514Z,52.21
2022-07-26T18:36:46.064Z,52.53
2022-07-26T18:39:13.109Z,52.44
2022-07-26T18:41:39.883Z,52.55
2022-07-26T18:44:06.453Z,52.92
2022-07-26T18:46:33.714Z,53.00
2022-07-26T18:49:00.787Z,52.60
2022-07-26T18:51:29.052Z,52.67
2022-07-26T18:53:55.796Z,52.93
2022-07-26T18:56:22.538Z,53.05
2022-07-26T18:58:49.123Z,53.29
2022-07-26T19:01:15.763Z,52.69
2022-07-26T19:03:42.428Z,52.88
2022-07-26T19:06:09.066Z,53.42
2022-07-26T19:08:35.621Z,53.27
2022-07-26T19:11:02.300Z,53.35
2022-07-26T19:13:28.886Z,53.43
2022-07-26T19:15:55.538Z,53.24
2022-07-26T19:18:22.113Z,53.27
2022-07-26T19:20:48.673Z,52.94
2022-07-26T19:23:15.297Z,53.06
2022-07-26T19:25:42.384Z,53.49
2022-07-26T19:28:09.290Z,53.54
2022-07-26T19:30:36.486Z,53.56
2022-07-26T19:33:03.389Z,53.27
2022-07-26T19:35:30.206Z,53.40
2022-07-26T19:37:56.789Z,53.62
2022-07-26T19:40:23.994Z,53.65
2022-07-26T19:42:50.596Z,53.85
2022-07-26T19:45:17.176Z,54.08
2022-07-26T19:47:44.014Z,53.88
2022-07-26T19:50:10.691Z,53.82
2022-07-26T19:52:38.557Z,53.87
2022-07-26T19:55:05.441Z,53.00
2022-07-26T19:57:32.005Z,54.57
2022-07-26T19:59:58.572Z,54.84
2022-07-26T20:02:25.164Z,54.75
2022-07-26T20:04:52.878Z,54.72
2022-07-26T20:07:20.582Z,54.61
2022-07-26T20:09:50.116Z,54.54
2022-07-26T20:12:18.185Z,55.13
2022-07-26T20:14:44.812Z,54.80
2022-07-26T20:17:13.214Z,54.91
2022-07-26T20:19:40.857Z,55.42
2022-07-26T20:22:07.479Z,55.58
2022-07-26T20:24:34.024Z,55.53
2022-07-26T20:27:00.670Z,55.43
2022-07-26T20:29:27.207Z,55.85
2022-07-26T20:31:53.893Z,55.66
2022-07-26T20:34:20.604Z,55.86
2022-07-26T20:36:47.410Z,55.93
2022-07-26T20:39:14.651Z,55.99
2022-07-26T20:41:41.649Z,56.19
2022-07-26T20:44:08.287Z,56.19
2022-07-26T20:46:35.225Z,56.41
2022-07-26T20:49:02.128Z,56.70
2022-07-26T20:51:29.077Z,56.93
2022-07-26T20:53:56.033Z,56.71
2022-07-26T20:56:22.788Z,57.05
2022-07-26T20:58:49.438Z,56.61
2022-07-26T21:01:16.320Z,56.96
2022-07-26T21:03:43.226Z,57.13
2022-07-26T21:06:10.067Z,56.99
2022-07-26T21:08:36.826Z,57.67
2022-07-26T21:11:03.655Z,57.71
2022-07-26T21:13:30.295Z,57.94
2022-07-26T21:15:56.833Z,57.71
2022-07-26T21:18:23.508Z,58.14
2022-07-26T21:20:50.078Z,58.22
2022-07-26T21:23:18.351Z,58.26
2022-07-26T21:25:45.729Z,58.56
2022-07-26T21:28:12.306Z,58.34
2022-07-26T21:30:39.063Z,58.79
2022-07-26T21:33:05.730Z,58.73
2022-07-26T21:35:32.496Z,58.96
2022-07-26T21:37:59.176Z,58.77
2022-07-26T21:40:26.035Z,58.67
2022-07-26T21:42:52.636Z,59.12
2022-07-26T21:45:19.318Z,58.90
2022-07-26T21:47:45.880Z,59.19
2022-07-26T21:50:12.461Z,59.21
2022-07-26T21:52:39.068Z,58.96
2022-07-26T21:55:06.177Z,59.27
2022-07-26T21:57:32.736Z,59.20
2022-07-26T21:59:59.495Z,58.88
2022-07-26T22:02:26.317Z,58.88
2022-07-26T22:04:52.879Z,58.71
2022-07-26T22:07:19.594Z,58.97
2022-07-26T22:09:46.167Z,58.96
2022-07-26T22:12:12.771Z,59.06
2022-07-26T22:14:39.362Z,59.24
2022-07-26T22:17:05.930Z,59.50
2022-07-26T22:19:32.517Z,59.30
2022-07-26T22:21:59.343Z,59.47
2022-07-26T22:24:25.946Z,59.18
2022-07-26T22:26:52.475Z,59.46
2022-07-26T22:29:19.156Z,59.21
2022-07-26T22:31:45.764Z,59.38
2022-07-26T22:34:12.379Z,59.12
2022-07-26T22:36:45.023Z,59.39
2022-07-26T22:39:12.581Z,59.13
2022-07-26T22:42:04.957Z,59.14
2022-07-26T22:44:26.078Z,59.35
2022-07-26T22:46:52.593Z,59.07
2022-07-26T22:49:19.172Z,59.21
2022-07-26T22:51:45.799Z,59.54
2022-07-26T22:54:12.538Z,59.27
2022-07-26T22:56:39.300Z,59.69
2022-07-26T22:59:05.973Z,59.51
2022-07-26T23:01:32.584Z,59.68
2022-07-26T23:03:59.296Z,59.73
2022-07-26T23:06:31.297Z,59.81
2022-07-26T23:08:58.352Z,60.03
2022-07-26T23:11:24.899Z,59.89
2022-07-26T23:13:51.466Z,59.94
2022-07-26T23:16:26.025Z,60.25
2022-07-26T23:18:52.808Z,60.12
2022-07-26T23:21:19.457Z,60.19
2022-07-26T23:23:46.037Z,59.69
2022-07-26T23:26:12.570Z,59.86
2022-07-26T23:28:39.179Z,59.62
2022-07-26T23:31:10.138Z,59.93
2022-07-26T23:33:53.490Z,59.96
2022-07-26T23:36:25.290Z,59.78
2022-07-26T23:38:51.975Z,59.99
2022-07-26T23:41:18.556Z,59.99
2022-07-26T23:43:45.097Z,60.18
2022-07-26T23:46:11.886Z,60.08
2022-07-26T23:48:38.681Z,60.27
2022-07-26T23:51:05.582Z,60.00
2022-07-26T23:53:32.529Z,60.08
2022-07-26T23:55:59.286Z,59.81
2022-07-26T23:58:25.969Z,59.73
